sensor_id;sensor_type;location;lat;lon;timestamp;P1;durP1;ratioP1;P2;durP2;ratioP2
75035;SDS011;64247;51.540;5.854;2023-06-22T00:00:12;8.27;;;5.22;;
75035;SDS011;64247;51.540;5.854;2023-06-22T00:02:13;12.68;;;5.93;;
75035;SDS011;64247;51.540;5.854;2023-06-22T00:04:15;8.07;;;4.80;;
75035;SDS011;64247;51.540;5.854;2023-06-22T00:06:16;7.75;;;5.43;;
75035;SDS011;64247;51.540;5.854;2023-06-22T00:08:17;7.90;;;5.43;;
75035;SDS011;64247;51.540;5.854;2023-06-22T00:10:19;7.43;;;5.03;;
75035;SDS011;64247;51.540;5.854;2023-06-22T00:12:19;9.15;;;4.90;;
75035;SDS011;64247;51.540;5.854;2023-06-22T00:14:20;7.10;;;5.32;;
75035;SDS011;64247;51.540;5.854;2023-06-22T00:16:21;7.50;;;5.55;;
75035;SDS011;64247;51.540;5.854;2023-06-22T00:18:22;11.65;;;5.00;;
75035;SDS011;64247;51.540;5.854;2023-06-22T00:20:28;5.68;;;4.47;;
75035;SDS011;64247;51.540;5.854;2023-06-22T00:22:29;6.50;;;4.82;;
75035;SDS011;64247;51.540;5.854;2023-06-22T00:24:30;8.13;;;5.72;;
75035;SDS011;64247;51.540;5.854;2023-06-22T00:26:31;9.77;;;5.47;;
75035;SDS011;64247;51.540;5.854;2023-06-22T00:28:32;7.53;;;5.55;;
75035;SDS011;64247;51.540;5.854;2023-06-22T00:30:34;8.85;;;7.03;;
75035;SDS011;64247;51.540;5.854;2023-06-22T00:32:36;8.23;;;5.57;;
75035;SDS011;64247;51.540;5.854;2023-06-22T00:34:36;8.57;;;5.82;;
75035;SDS011;64247;51.540;5.854;2023-06-22T00:36:37;7.93;;;6.20;;
75035;SDS011;64247;51.540;5.854;2023-06-22T00:38:41;8.48;;;6.28;;
75035;SDS011;64247;51.540;5.854;2023-06-22T00:40:42;8.77;;;5.80;;
75035;SDS011;64247;51.540;5.854;2023-06-22T00:42:43;8.85;;;6.05;;
75035;SDS011;64247;51.540;5.854;2023-06-22T00:44:44;9.00;;;6.82;;
75035;SDS011;64247;51.540;5.854;2023-06-22T00:46:45;10.65;;;7.85;;
75035;SDS011;64247;51.540;5.854;2023-06-22T00:48:46;8.30;;;6.28;;
75035;SDS011;64247;51.540;5.854;2023-06-22T00:50:47;9.73;;;7.22;;
75035;SDS011;64247;51.540;5.854;2023-06-22T00:52:52;10.98;;;7.20;;
75035;SDS011;64247;51.540;5.854;2023-06-22T00:54:58;10.88;;;7.50;;
75035;SDS011;64247;51.540;5.854;2023-06-22T00:57:02;8.65;;;6.38;;
75035;SDS011;64247;51.540;5.854;2023-06-22T00:59:04;11.50;;;7.90;;
75035;SDS011;64247;51.540;5.854;2023-06-22T01:01:05;11.07;;;7.18;;
75035;SDS011;64247;51.540;5.854;2023-06-22T01:03:06;11.73;;;7.00;;
75035;SDS011;64247;51.540;5.854;2023-06-22T01:05:09;9.00;;;7.15;;
75035;SDS011;64247;51.540;5.854;2023-06-22T01:09:45;12.23;;;7.85;;
75035;SDS011;64247;51.540;5.854;2023-06-22T01:12:12;11.88;;;7.82;;
75035;SDS011;64247;51.540;5.854;2023-06-22T01:14:20;10.68;;;7.30;;
75035;SDS011;64247;51.540;5.854;2023-06-22T01:16:33;10.75;;;7.05;;
75035;SDS011;64247;51.540;5.854;2023-06-22T01:18:41;9.27;;;6.40;;
75035;SDS011;64247;51.540;5.854;2023-06-22T01:20:44;11.27;;;7.18;;
75035;SDS011;64247;51.540;5.854;2023-06-22T01:23:29;10.88;;;7.30;;
75035;SDS011;64247;51.540;5.854;2023-06-22T01:25:31;9.52;;;7.18;;
75035;SDS011;64247;51.540;5.854;2023-06-22T01:27:50;11.93;;;7.88;;
75035;SDS011;64247;51.540;5.854;2023-06-22T01:30:03;12.20;;;7.85;;
75035;SDS011;64247;51.540;5.854;2023-06-22T01:32:09;24.95;;;8.82;;
75035;SDS011;64247;51.540;5.854;2023-06-22T01:34:12;11.90;;;8.25;;
75035;SDS011;64247;51.540;5.854;2023-06-22T01:36:16;12.05;;;8.45;;
75035;SDS011;64247;51.540;5.854;2023-06-22T01:38:20;12.00;;;8.35;;
75035;SDS011;64247;51.540;5.854;2023-06-22T01:40:22;15.00;;;8.85;;
75035;SDS011;64247;51.540;5.854;2023-06-22T01:42:25;13.40;;;8.60;;
75035;SDS011;64247;51.540;5.854;2023-06-22T01:44:27;11.52;;;8.57;;
75035;SDS011;64247;51.540;5.854;2023-06-22T01:46:29;14.27;;;8.52;;
75035;SDS011;64247;51.540;5.854;2023-06-22T01:48:31;15.57;;;9.50;;
75035;SDS011;64247;51.540;5.854;2023-06-22T01:50:33;12.80;;;9.15;;
75035;SDS011;64247;51.540;5.854;2023-06-22T01:52:33;17.25;;;9.50;;
75035;SDS011;64247;51.540;5.854;2023-06-22T01:54:34;13.95;;;8.80;;
75035;SDS011;64247;51.540;5.854;2023-06-22T01:56:35;13.57;;;8.60;;
75035;SDS011;64247;51.540;5.854;2023-06-22T01:58:40;11.55;;;8.23;;
75035;SDS011;64247;51.540;5.854;2023-06-22T02:03:30;16.38;;;9.07;;
75035;SDS011;64247;51.540;5.854;2023-06-22T02:05:37;16.15;;;9.52;;
75035;SDS011;64247;51.540;5.854;2023-06-22T02:07:47;14.45;;;9.05;;
75035;SDS011;64247;51.540;5.854;2023-06-22T02:09:57;11.50;;;8.88;;
75035;SDS011;64247;51.540;5.854;2023-06-22T02:12:02;13.30;;;8.90;;
75035;SDS011;64247;51.540;5.854;2023-06-22T02:14:06;17.13;;;9.32;;
75035;SDS011;64247;51.540;5.854;2023-06-22T02:16:10;12.35;;;8.85;;
75035;SDS011;64247;51.540;5.854;2023-06-22T02:18:14;16.48;;;9.93;;
75035;SDS011;64247;51.540;5.854;2023-06-22T02:20:16;14.77;;;9.40;;
75035;SDS011;64247;51.540;5.854;2023-06-22T02:22:17;14.98;;;9.75;;
75035;SDS011;64247;51.540;5.854;2023-06-22T02:24:18;13.85;;;9.63;;
75035;SDS011;64247;51.540;5.854;2023-06-22T02:26:19;15.23;;;10.45;;
75035;SDS011;64247;51.540;5.854;2023-06-22T02:28:20;15.13;;;10.68;;
75035;SDS011;64247;51.540;5.854;2023-06-22T02:30:21;13.10;;;9.32;;
75035;SDS011;64247;51.540;5.854;2023-06-22T02:32:22;16.58;;;10.68;;
75035;SDS011;64247;51.540;5.854;2023-06-22T02:34:23;14.65;;;10.27;;
75035;SDS011;64247;51.540;5.854;2023-06-22T02:36:25;13.32;;;9.90;;
75035;SDS011;64247;51.540;5.854;2023-06-22T02:38:27;17.23;;;10.32;;
75035;SDS011;64247;51.540;5.854;2023-06-22T02:40:28;13.85;;;9.80;;
75035;SDS011;64247;51.540;5.854;2023-06-22T02:42:30;17.50;;;10.82;;
75035;SDS011;64247;51.540;5.854;2023-06-22T02:44:31;13.25;;;10.00;;
75035;SDS011;64247;51.540;5.854;2023-06-22T02:46:32;12.75;;;8.85;;
75035;SDS011;64247;51.540;5.854;2023-06-22T02:48:33;18.35;;;10.93;;
75035;SDS011;64247;51.540;5.854;2023-06-22T02:50:35;15.80;;;9.70;;
75035;SDS011;64247;51.540;5.854;2023-06-22T02:52:37;17.13;;;10.82;;
75035;SDS011;64247;51.540;5.854;2023-06-22T02:54:39;17.13;;;11.43;;
75035;SDS011;64247;51.540;5.854;2023-06-22T02:56:40;14.75;;;9.63;;
75035;SDS011;64247;51.540;5.854;2023-06-22T02:58:44;15.48;;;9.10;;
75035;SDS011;64247;51.540;5.854;2023-06-22T03:00:46;17.98;;;10.07;;
75035;SDS011;64247;51.540;5.854;2023-06-22T03:02:47;19.65;;;11.18;;
75035;SDS011;64247;51.540;5.854;2023-06-22T03:04:49;14.35;;;10.20;;
75035;SDS011;64247;51.540;5.854;2023-06-22T03:06:50;13.52;;;9.15;;
75035;SDS011;64247;51.540;5.854;2023-06-22T03:08:51;18.25;;;9.73;;
75035;SDS011;64247;51.540;5.854;2023-06-22T03:10:52;13.00;;;9.30;;
75035;SDS011;64247;51.540;5.854;2023-06-22T03:12:54;16.38;;;9.60;;
75035;SDS011;64247;51.540;5.854;2023-06-22T03:14:55;15.32;;;10.25;;
75035;SDS011;64247;51.540;5.854;2023-06-22T03:16:56;14.90;;;9.70;;
75035;SDS011;64247;51.540;5.854;2023-06-22T03:19:02;14.45;;;9.38;;
75035;SDS011;64247;51.540;5.854;2023-06-22T03:21:03;15.95;;;10.00;;
75035;SDS011;64247;51.540;5.854;2023-06-22T03:23:05;16.38;;;10.70;;
75035;SDS011;64247;51.540;5.854;2023-06-22T03:25:07;15.25;;;10.13;;
75035;SDS011;64247;51.540;5.854;2023-06-22T03:27:18;18.00;;;10.38;;
75035;SDS011;64247;51.540;5.854;2023-06-22T03:29:19;17.58;;;11.95;;
75035;SDS011;64247;51.540;5.854;2023-06-22T03:31:20;16.33;;;9.88;;
75035;SDS011;64247;51.540;5.854;2023-06-22T03:33:21;16.73;;;10.32;;
75035;SDS011;64247;51.540;5.854;2023-06-22T03:35:22;13.80;;;9.77;;
75035;SDS011;64247;51.540;5.854;2023-06-22T03:37:23;18.48;;;11.02;;
75035;SDS011;64247;51.540;5.854;2023-06-22T03:39:26;15.65;;;10.05;;
75035;SDS011;64247;51.540;5.854;2023-06-22T03:41:27;21.02;;;10.88;;
75035;SDS011;64247;51.540;5.854;2023-06-22T03:43:28;17.13;;;9.65;;
75035;SDS011;64247;51.540;5.854;2023-06-22T03:45:30;16.25;;;9.77;;
75035;SDS011;64247;51.540;5.854;2023-06-22T03:47:32;16.52;;;10.77;;
75035;SDS011;64247;51.540;5.854;2023-06-22T03:49:33;15.20;;;9.93;;
75035;SDS011;64247;51.540;5.854;2023-06-22T03:51:34;18.55;;;11.18;;
75035;SDS011;64247;51.540;5.854;2023-06-22T03:53:35;19.25;;;10.20;;
75035;SDS011;64247;51.540;5.854;2023-06-22T03:55:36;12.65;;;9.18;;
75035;SDS011;64247;51.540;5.854;2023-06-22T03:57:37;17.08;;;10.27;;
75035;SDS011;64247;51.540;5.854;2023-06-22T03:59:38;15.15;;;10.02;;
75035;SDS011;64247;51.540;5.854;2023-06-22T04:01:39;14.07;;;10.18;;
75035;SDS011;64247;51.540;5.854;2023-06-22T04:03:40;13.60;;;9.88;;
75035;SDS011;64247;51.540;5.854;2023-06-22T04:05:41;16.30;;;10.65;;
75035;SDS011;64247;51.540;5.854;2023-06-22T04:07:42;12.82;;;10.45;;
75035;SDS011;64247;51.540;5.854;2023-06-22T04:09:43;15.73;;;10.20;;
75035;SDS011;64247;51.540;5.854;2023-06-22T04:11:44;16.42;;;10.20;;
75035;SDS011;64247;51.540;5.854;2023-06-22T04:13:45;14.75;;;9.75;;
75035;SDS011;64247;51.540;5.854;2023-06-22T04:15:46;13.25;;;10.05;;
75035;SDS011;64247;51.540;5.854;2023-06-22T04:17:47;16.83;;;10.27;;
75035;SDS011;64247;51.540;5.854;2023-06-22T04:19:48;15.07;;;10.95;;
75035;SDS011;64247;51.540;5.854;2023-06-22T04:21:49;16.58;;;10.55;;
75035;SDS011;64247;51.540;5.854;2023-06-22T04:23:50;14.27;;;10.27;;
75035;SDS011;64247;51.540;5.854;2023-06-22T04:25:51;13.75;;;9.63;;
75035;SDS011;64247;51.540;5.854;2023-06-22T04:27:52;18.55;;;10.23;;
75035;SDS011;64247;51.540;5.854;2023-06-22T04:29:53;15.85;;;10.38;;
75035;SDS011;64247;51.540;5.854;2023-06-22T04:31:54;18.40;;;11.00;;
75035;SDS011;64247;51.540;5.854;2023-06-22T04:33:56;13.82;;;9.38;;
75035;SDS011;64247;51.540;5.854;2023-06-22T04:35:57;12.93;;;10.25;;
75035;SDS011;64247;51.540;5.854;2023-06-22T04:38:01;15.43;;;11.02;;
75035;SDS011;64247;51.540;5.854;2023-06-22T04:40:04;13.57;;;9.73;;
75035;SDS011;64247;51.540;5.854;2023-06-22T04:42:28;16.20;;;10.93;;
75035;SDS011;64247;51.540;5.854;2023-06-22T04:44:29;15.90;;;10.30;;
75035;SDS011;64247;51.540;5.854;2023-06-22T04:46:30;16.17;;;10.52;;
75035;SDS011;64247;51.540;5.854;2023-06-22T04:48:31;14.75;;;10.68;;
75035;SDS011;64247;51.540;5.854;2023-06-22T04:50:36;12.15;;;9.85;;
75035;SDS011;64247;51.540;5.854;2023-06-22T04:52:39;14.65;;;10.95;;
75035;SDS011;64247;51.540;5.854;2023-06-22T04:54:40;16.40;;;11.68;;
75035;SDS011;64247;51.540;5.854;2023-06-22T04:56:47;17.20;;;10.20;;
75035;SDS011;64247;51.540;5.854;2023-06-22T04:58:53;13.70;;;9.60;;
75035;SDS011;64247;51.540;5.854;2023-06-22T05:00:57;14.23;;;10.32;;
75035;SDS011;64247;51.540;5.854;2023-06-22T05:02:58;14.95;;;10.63;;
75035;SDS011;64247;51.540;5.854;2023-06-22T05:04:59;16.27;;;11.63;;
75035;SDS011;64247;51.540;5.854;2023-06-22T05:07:00;13.63;;;11.27;;
75035;SDS011;64247;51.540;5.854;2023-06-22T05:09:01;14.90;;;11.35;;
75035;SDS011;64247;51.540;5.854;2023-06-22T05:11:03;15.60;;;10.45;;
75035;SDS011;64247;51.540;5.854;2023-06-22T05:13:04;15.98;;;10.68;;
75035;SDS011;64247;51.540;5.854;2023-06-22T05:15:05;15.13;;;10.60;;
75035;SDS011;64247;51.540;5.854;2023-06-22T05:17:08;16.25;;;11.93;;
75035;SDS011;64247;51.540;5.854;2023-06-22T05:19:13;17.30;;;11.57;;
75035;SDS011;64247;51.540;5.854;2023-06-22T05:21:15;18.20;;;12.77;;
75035;SDS011;64247;51.540;5.854;2023-06-22T05:23:16;17.02;;;12.20;;
75035;SDS011;64247;51.540;5.854;2023-06-22T05:25:16;17.50;;;11.98;;
75035;SDS011;64247;51.540;5.854;2023-06-22T05:27:17;17.55;;;12.45;;
75035;SDS011;64247;51.540;5.854;2023-06-22T05:29:18;19.48;;;12.60;;
75035;SDS011;64247;51.540;5.854;2023-06-22T05:31:19;17.98;;;13.63;;
75035;SDS011;64247;51.540;5.854;2023-06-22T05:33:21;17.92;;;12.95;;
75035;SDS011;64247;51.540;5.854;2023-06-22T05:35:22;16.80;;;12.77;;
75035;SDS011;64247;51.540;5.854;2023-06-22T05:37:22;16.92;;;13.27;;
75035;SDS011;64247;51.540;5.854;2023-06-22T05:39:23;20.38;;;15.20;;
75035;SDS011;64247;51.540;5.854;2023-06-22T05:41:25;23.88;;;14.80;;
75035;SDS011;64247;51.540;5.854;2023-06-22T05:43:26;17.58;;;13.70;;
75035;SDS011;64247;51.540;5.854;2023-06-22T05:45:27;18.75;;;13.02;;
75035;SDS011;64247;51.540;5.854;2023-06-22T05:47:28;20.40;;;14.52;;
75035;SDS011;64247;51.540;5.854;2023-06-22T05:49:29;19.92;;;14.27;;
75035;SDS011;64247;51.540;5.854;2023-06-22T05:51:32;20.08;;;13.75;;
75035;SDS011;64247;51.540;5.854;2023-06-22T05:53:33;19.88;;;12.48;;
75035;SDS011;64247;51.540;5.854;2023-06-22T05:55:34;21.42;;;13.25;;
75035;SDS011;64247;51.540;5.854;2023-06-22T05:57:35;20.88;;;14.35;;
75035;SDS011;64247;51.540;5.854;2023-06-22T05:59:36;18.20;;;12.88;;
75035;SDS011;64247;51.540;5.854;2023-06-22T06:01:37;16.73;;;12.63;;
75035;SDS011;64247;51.540;5.854;2023-06-22T06:03:38;17.85;;;14.38;;
75035;SDS011;64247;51.540;5.854;2023-06-22T06:05:41;19.80;;;14.43;;
75035;SDS011;64247;51.540;5.854;2023-06-22T06:07:42;16.92;;;13.77;;
75035;SDS011;64247;51.540;5.854;2023-06-22T06:09:43;19.15;;;14.45;;
75035;SDS011;64247;51.540;5.854;2023-06-22T06:11:44;17.83;;;13.45;;
75035;SDS011;64247;51.540;5.854;2023-06-22T06:13:45;22.15;;;14.05;;
75035;SDS011;64247;51.540;5.854;2023-06-22T06:15:46;20.92;;;13.82;;
75035;SDS011;64247;51.540;5.854;2023-06-22T06:17:48;18.48;;;14.35;;
75035;SDS011;64247;51.540;5.854;2023-06-22T06:19:51;22.40;;;14.00;;
75035;SDS011;64247;51.540;5.854;2023-06-22T06:21:53;20.25;;;14.55;;
75035;SDS011;64247;51.540;5.854;2023-06-22T06:23:53;19.08;;;14.15;;
75035;SDS011;64247;51.540;5.854;2023-06-22T06:25:54;21.35;;;13.82;;
75035;SDS011;64247;51.540;5.854;2023-06-22T06:27:55;16.58;;;13.23;;
75035;SDS011;64247;51.540;5.854;2023-06-22T06:29:57;20.40;;;14.02;;
75035;SDS011;64247;51.540;5.854;2023-06-22T06:31:57;20.25;;;14.10;;
75035;SDS011;64247;51.540;5.854;2023-06-22T06:33:58;20.02;;;14.18;;
75035;SDS011;64247;51.540;5.854;2023-06-22T06:35:59;19.77;;;13.68;;
75035;SDS011;64247;51.540;5.854;2023-06-22T06:38:02;18.30;;;13.45;;
75035;SDS011;64247;51.540;5.854;2023-06-22T06:40:03;21.73;;;14.07;;
75035;SDS011;64247;51.540;5.854;2023-06-22T06:42:12;24.90;;;15.00;;
75035;SDS011;64247;51.540;5.854;2023-06-22T06:44:14;24.95;;;14.60;;
75035;SDS011;64247;51.540;5.854;2023-06-22T06:46:15;24.77;;;14.68;;
75035;SDS011;64247;51.540;5.854;2023-06-22T06:48:16;18.85;;;12.35;;
75035;SDS011;64247;51.540;5.854;2023-06-22T06:50:18;18.58;;;13.30;;
75035;SDS011;64247;51.540;5.854;2023-06-22T06:52:19;19.50;;;14.50;;
75035;SDS011;64247;51.540;5.854;2023-06-22T06:54:20;21.65;;;15.10;;
75035;SDS011;64247;51.540;5.854;2023-06-22T06:56:21;18.17;;;14.40;;
75035;SDS011;64247;51.540;5.854;2023-06-22T06:58:22;24.52;;;14.77;;
75035;SDS011;64247;51.540;5.854;2023-06-22T07:00:23;19.58;;;13.57;;
75035;SDS011;64247;51.540;5.854;2023-06-22T07:02:25;20.05;;;13.48;;
75035;SDS011;64247;51.540;5.854;2023-06-22T07:04:28;20.08;;;15.00;;
75035;SDS011;64247;51.540;5.854;2023-06-22T07:06:29;22.05;;;14.38;;
75035;SDS011;64247;51.540;5.854;2023-06-22T07:08:32;23.17;;;15.73;;
75035;SDS011;64247;51.540;5.854;2023-06-22T07:10:33;32.15;;;15.52;;
75035;SDS011;64247;51.540;5.854;2023-06-22T07:12:34;23.60;;;14.38;;
75035;SDS011;64247;51.540;5.854;2023-06-22T07:14:36;17.48;;;13.32;;
75035;SDS011;64247;51.540;5.854;2023-06-22T07:16:37;22.52;;;14.15;;
75035;SDS011;64247;51.540;5.854;2023-06-22T07:18:39;18.70;;;13.93;;
75035;SDS011;64247;51.540;5.854;2023-06-22T07:20:40;26.35;;;14.75;;
75035;SDS011;64247;51.540;5.854;2023-06-22T07:22:43;22.95;;;16.08;;
75035;SDS011;64247;51.540;5.854;2023-06-22T07:24:47;25.35;;;16.48;;
75035;SDS011;64247;51.540;5.854;2023-06-22T07:26:49;23.35;;;15.85;;
75035;SDS011;64247;51.540;5.854;2023-06-22T07:28:51;24.10;;;15.60;;
75035;SDS011;64247;51.540;5.854;2023-06-22T07:30:52;19.70;;;15.68;;
75035;SDS011;64247;51.540;5.854;2023-06-22T07:32:53;24.55;;;15.88;;
75035;SDS011;64247;51.540;5.854;2023-06-22T07:34:55;19.33;;;14.73;;
75035;SDS011;64247;51.540;5.854;2023-06-22T07:36:56;19.02;;;14.52;;
75035;SDS011;64247;51.540;5.854;2023-06-22T07:38:57;18.27;;;13.38;;
75035;SDS011;64247;51.540;5.854;2023-06-22T07:40:57;22.73;;;16.00;;
75035;SDS011;64247;51.540;5.854;2023-06-22T07:42:58;18.92;;;13.75;;
75035;SDS011;64247;51.540;5.854;2023-06-22T07:44:59;21.60;;;14.18;;
75035;SDS011;64247;51.540;5.854;2023-06-22T07:47:01;23.40;;;13.65;;
75035;SDS011;64247;51.540;5.854;2023-06-22T07:49:02;22.83;;;15.48;;
75035;SDS011;64247;51.540;5.854;2023-06-22T07:51:03;22.52;;;16.85;;
75035;SDS011;64247;51.540;5.854;2023-06-22T07:53:04;20.05;;;14.73;;
75035;SDS011;64247;51.540;5.854;2023-06-22T07:55:04;18.77;;;14.38;;
75035;SDS011;64247;51.540;5.854;2023-06-22T07:57:06;19.60;;;14.98;;
75035;SDS011;64247;51.540;5.854;2023-06-22T07:59:07;18.38;;;13.73;;
75035;SDS011;64247;51.540;5.854;2023-06-22T08:01:08;17.60;;;13.55;;
75035;SDS011;64247;51.540;5.854;2023-06-22T08:03:09;24.85;;;13.63;;
75035;SDS011;64247;51.540;5.854;2023-06-22T08:05:10;18.40;;;14.00;;
75035;SDS011;64247;51.540;5.854;2023-06-22T08:07:11;20.83;;;15.30;;
75035;SDS011;64247;51.540;5.854;2023-06-22T08:09:12;25.52;;;15.90;;
75035;SDS011;64247;51.540;5.854;2023-06-22T08:11:13;18.33;;;14.10;;
75035;SDS011;64247;51.540;5.854;2023-06-22T08:13:14;22.05;;;14.43;;
75035;SDS011;64247;51.540;5.854;2023-06-22T08:15:15;22.33;;;14.85;;
75035;SDS011;64247;51.540;5.854;2023-06-22T08:17:16;16.60;;;13.43;;
75035;SDS011;64247;51.540;5.854;2023-06-22T08:19:17;15.18;;;12.38;;
75035;SDS011;64247;51.540;5.854;2023-06-22T08:21:18;21.15;;;14.65;;
75035;SDS011;64247;51.540;5.854;2023-06-22T08:23:19;25.77;;;15.35;;
75035;SDS011;64247;51.540;5.854;2023-06-22T08:25:20;27.30;;;14.90;;
75035;SDS011;64247;51.540;5.854;2023-06-22T08:27:21;18.05;;;14.05;;
75035;SDS011;64247;51.540;5.854;2023-06-22T08:29:24;25.52;;;15.75;;
75035;SDS011;64247;51.540;5.854;2023-06-22T08:31:24;17.35;;;12.65;;
75035;SDS011;64247;51.540;5.854;2023-06-22T08:33:25;21.85;;;14.68;;
75035;SDS011;64247;51.540;5.854;2023-06-22T08:35:28;22.23;;;15.55;;
75035;SDS011;64247;51.540;5.854;2023-06-22T08:37:29;21.00;;;14.15;;
75035;SDS011;64247;51.540;5.854;2023-06-22T08:39:35;21.05;;;13.45;;
75035;SDS011;64247;51.540;5.854;2023-06-22T08:41:36;21.38;;;13.95;;
75035;SDS011;64247;51.540;5.854;2023-06-22T08:43:37;35.50;;;15.18;;
75035;SDS011;64247;51.540;5.854;2023-06-22T08:45:38;22.27;;;14.50;;
75035;SDS011;64247;51.540;5.854;2023-06-22T08:47:40;18.35;;;13.98;;
75035;SDS011;64247;51.540;5.854;2023-06-22T08:49:42;25.83;;;13.55;;
75035;SDS011;64247;51.540;5.854;2023-06-22T08:51:43;21.30;;;15.18;;
75035;SDS011;64247;51.540;5.854;2023-06-22T08:53:45;18.88;;;14.48;;
75035;SDS011;64247;51.540;5.854;2023-06-22T08:55:46;19.60;;;14.18;;
75035;SDS011;64247;51.540;5.854;2023-06-22T08:57:47;19.13;;;13.30;;
75035;SDS011;64247;51.540;5.854;2023-06-22T08:59:48;18.73;;;14.23;;
75035;SDS011;64247;51.540;5.854;2023-06-22T09:01:49;16.80;;;13.45;;
75035;SDS011;64247;51.540;5.854;2023-06-22T09:03:50;20.23;;;15.00;;
75035;SDS011;64247;51.540;5.854;2023-06-22T09:05:55;18.55;;;15.55;;
75035;SDS011;64247;51.540;5.854;2023-06-22T09:07:56;21.70;;;13.77;;
75035;SDS011;64247;51.540;5.854;2023-06-22T09:09:58;23.98;;;15.32;;
75035;SDS011;64247;51.540;5.854;2023-06-22T09:11:59;24.80;;;16.23;;
75035;SDS011;64247;51.540;5.854;2023-06-22T09:14:00;25.00;;;14.82;;
75035;SDS011;64247;51.540;5.854;2023-06-22T09:16:01;29.60;;;16.70;;
75035;SDS011;64247;51.540;5.854;2023-06-22T09:18:02;22.23;;;13.48;;
75035;SDS011;64247;51.540;5.854;2023-06-22T09:20:03;24.10;;;16.40;;
75035;SDS011;64247;51.540;5.854;2023-06-22T09:22:05;21.13;;;14.98;;
75035;SDS011;64247;51.540;5.854;2023-06-22T09:24:06;18.00;;;14.50;;
75035;SDS011;64247;51.540;5.854;2023-06-22T09:26:08;23.27;;;13.52;;
75035;SDS011;64247;51.540;5.854;2023-06-22T09:28:10;18.98;;;14.45;;
75035;SDS011;64247;51.540;5.854;2023-06-22T09:30:11;17.98;;;14.00;;
75035;SDS011;64247;51.540;5.854;2023-06-22T09:32:12;17.70;;;13.82;;
75035;SDS011;64247;51.540;5.854;2023-06-22T09:34:13;19.33;;;15.05;;
75035;SDS011;64247;51.540;5.854;2023-06-22T09:36:14;17.73;;;14.07;;
75035;SDS011;64247;51.540;5.854;2023-06-22T09:38:17;18.88;;;13.88;;
75035;SDS011;64247;51.540;5.854;2023-06-22T09:40:18;19.75;;;14.05;;
75035;SDS011;64247;51.540;5.854;2023-06-22T09:42:20;16.08;;;13.43;;
75035;SDS011;64247;51.540;5.854;2023-06-22T09:44:21;15.95;;;12.68;;
75035;SDS011;64247;51.540;5.854;2023-06-22T09:46:22;19.27;;;13.90;;
75035;SDS011;64247;51.540;5.854;2023-06-22T09:48:25;16.30;;;13.50;;
75035;SDS011;64247;51.540;5.854;2023-06-22T09:50:26;18.15;;;13.48;;
75035;SDS011;64247;51.540;5.854;2023-06-22T09:52:27;20.10;;;14.32;;
75035;SDS011;64247;51.540;5.854;2023-06-22T09:54:28;18.02;;;13.25;;
75035;SDS011;64247;51.540;5.854;2023-06-22T09:56:29;15.20;;;12.52;;
75035;SDS011;64247;51.540;5.854;2023-06-22T09:58:30;15.93;;;12.65;;
75035;SDS011;64247;51.540;5.854;2023-06-22T10:00:31;21.85;;;13.57;;
75035;SDS011;64247;51.540;5.854;2023-06-22T10:02:32;16.98;;;13.93;;
75035;SDS011;64247;51.540;5.854;2023-06-22T10:04:34;22.85;;;15.80;;
75035;SDS011;64247;51.540;5.854;2023-06-22T10:06:35;28.50;;;14.93;;
75035;SDS011;64247;51.540;5.854;2023-06-22T10:08:36;21.73;;;14.45;;
75035;SDS011;64247;51.540;5.854;2023-06-22T10:10:38;19.25;;;13.90;;
75035;SDS011;64247;51.540;5.854;2023-06-22T10:12:43;20.75;;;13.88;;
75035;SDS011;64247;51.540;5.854;2023-06-22T10:14:47;18.80;;;14.52;;
75035;SDS011;64247;51.540;5.854;2023-06-22T10:16:48;20.08;;;13.60;;
75035;SDS011;64247;51.540;5.854;2023-06-22T10:18:49;22.77;;;14.65;;
75035;SDS011;64247;51.540;5.854;2023-06-22T10:20:50;22.25;;;14.13;;
75035;SDS011;64247;51.540;5.854;2023-06-22T10:22:52;23.50;;;14.90;;
75035;SDS011;64247;51.540;5.854;2023-06-22T10:24:53;24.65;;;14.77;;
75035;SDS011;64247;51.540;5.854;2023-06-22T10:26:54;18.67;;;13.07;;
75035;SDS011;64247;51.540;5.854;2023-06-22T10:28:55;17.40;;;13.45;;
75035;SDS011;64247;51.540;5.854;2023-06-22T10:30:56;16.33;;;13.07;;
75035;SDS011;64247;51.540;5.854;2023-06-22T10:32:56;17.38;;;12.15;;
75035;SDS011;64247;51.540;5.854;2023-06-22T10:34:57;19.75;;;12.82;;
75035;SDS011;64247;51.540;5.854;2023-06-22T10:36:58;19.65;;;13.98;;
75035;SDS011;64247;51.540;5.854;2023-06-22T10:38:59;22.77;;;13.77;;
75035;SDS011;64247;51.540;5.854;2023-06-22T10:41:02;28.33;;;15.23;;
75035;SDS011;64247;51.540;5.854;2023-06-22T10:43:03;24.20;;;14.35;;
75035;SDS011;64247;51.540;5.854;2023-06-22T10:45:04;20.75;;;14.63;;
75035;SDS011;64247;51.540;5.854;2023-06-22T10:47:05;29.25;;;15.27;;
75035;SDS011;64247;51.540;5.854;2023-06-22T10:49:06;24.42;;;15.27;;
75035;SDS011;64247;51.540;5.854;2023-06-22T10:51:07;30.83;;;15.05;;
75035;SDS011;64247;51.540;5.854;2023-06-22T10:53:08;32.05;;;15.77;;
75035;SDS011;64247;51.540;5.854;2023-06-22T10:55:09;22.70;;;15.18;;
75035;SDS011;64247;51.540;5.854;2023-06-22T10:57:11;36.97;;;16.38;;
75035;SDS011;64247;51.540;5.854;2023-06-22T10:59:12;26.00;;;16.05;;
75035;SDS011;64247;51.540;5.854;2023-06-22T11:01:13;23.08;;;16.27;;
75035;SDS011;64247;51.540;5.854;2023-06-22T11:03:14;22.45;;;15.32;;
75035;SDS011;64247;51.540;5.854;2023-06-22T11:05:15;25.30;;;17.70;;
75035;SDS011;64247;51.540;5.854;2023-06-22T11:07:16;25.42;;;17.75;;
75035;SDS011;64247;51.540;5.854;2023-06-22T11:09:17;24.85;;;18.23;;
75035;SDS011;64247;51.540;5.854;2023-06-22T11:11:20;24.48;;;15.38;;
75035;SDS011;64247;51.540;5.854;2023-06-22T11:13:21;21.00;;;16.38;;
75035;SDS011;64247;51.540;5.854;2023-06-22T11:15:22;22.20;;;16.02;;
75035;SDS011;64247;51.540;5.854;2023-06-22T11:17:23;23.73;;;16.65;;
75035;SDS011;64247;51.540;5.854;2023-06-22T11:19:24;23.17;;;17.33;;
75035;SDS011;64247;51.540;5.854;2023-06-22T11:21:25;22.23;;;17.25;;
75035;SDS011;64247;51.540;5.854;2023-06-22T11:23:26;23.38;;;16.77;;
75035;SDS011;64247;51.540;5.854;2023-06-22T11:25:29;23.77;;;16.23;;
75035;SDS011;64247;51.540;5.854;2023-06-22T11:27:30;22.95;;;17.30;;
75035;SDS011;64247;51.540;5.854;2023-06-22T11:29:31;21.42;;;16.23;;
75035;SDS011;64247;51.540;5.854;2023-06-22T11:31:33;23.10;;;17.42;;
75035;SDS011;64247;51.540;5.854;2023-06-22T11:33:35;26.98;;;18.35;;
75035;SDS011;64247;51.540;5.854;2023-06-22T11:35:36;25.15;;;18.25;;
75035;SDS011;64247;51.540;5.854;2023-06-22T11:37:37;25.30;;;17.98;;
75035;SDS011;64247;51.540;5.854;2023-06-22T11:39:38;23.83;;;18.55;;
75035;SDS011;64247;51.540;5.854;2023-06-22T11:41:39;25.33;;;18.75;;
75035;SDS011;64247;51.540;5.854;2023-06-22T11:43:40;24.35;;;18.33;;
75035;SDS011;64247;51.540;5.854;2023-06-22T11:45:41;24.48;;;19.17;;
75035;SDS011;64247;51.540;5.854;2023-06-22T11:47:42;24.38;;;18.13;;
75035;SDS011;64247;51.540;5.854;2023-06-22T11:49:43;25.55;;;17.80;;
75035;SDS011;64247;51.540;5.854;2023-06-22T11:51:44;24.30;;;17.33;;
75035;SDS011;64247;51.540;5.854;2023-06-22T11:53:45;30.00;;;18.80;;
75035;SDS011;64247;51.540;5.854;2023-06-22T11:55:46;27.05;;;18.58;;
75035;SDS011;64247;51.540;5.854;2023-06-22T12:00:07;23.70;;;16.35;;
75035;SDS011;64247;51.540;5.854;2023-06-22T12:02:16;23.58;;;17.13;;
75035;SDS011;64247;51.540;5.854;2023-06-22T12:04:17;24.25;;;16.10;;